createdAt,value
2022-09-03T00:00:17.651Z,0.00
2022-09-03T00:01:17.617Z,0.00
2022-09-03T00:02:17.582Z,0.00
2022-09-03T00:03:17.573Z,0.00
2022-09-03T00:04:21.343Z,0.00
2022-09-03T00:05:18.905Z,0.00
2022-09-03T00:06:17.583Z,0.00
2022-09-03T00:07:17.578Z,0.00
2022-09-03T00:08:17.565Z,0.00
2022-09-03T00:09:17.531Z,0.00
2022-09-03T00:10:17.645Z,0.00
2022-09-03T00:11:17.622Z,0.00
2022-09-03T00:12:17.546Z,0.00
2022-09-03T00:13:17.577Z,0.00
2022-09-03T00:14:17.538Z,0.00
2022-09-03T00:15:17.541Z,0.00
2022-09-03T00:16:17.579Z,0.00
2022-09-03T00:17:17.548Z,0.00
2022-09-03T00:18:17.496Z,0.00
2022-09-03T00:19:18.237Z,0.00
2022-09-03T00:20:17.510Z,0.00
2022-09-03T00:21:17.515Z,0.00
2022-09-03T00:22:17.475Z,0.00
2022-09-03T00:23:17.459Z,0.00
2022-09-03T00:24:17.505Z,0.00
2022-09-03T00:25:17.429Z,0.00
2022-09-03T00:26:17.410Z,0.00
2022-09-03T00:27:17.453Z,0.00
2022-09-03T00:28:17.417Z,0.00
2022-09-03T00:29:17.421Z,0.00
2022-09-03T00:30:17.575Z,0.00
2022-09-03T00:31:17.420Z,0.00
2022-09-03T00:32:17.387Z,0.00
2022-09-03T00:33:17.372Z,0.00
2022-09-03T00:34:17.388Z,0.00
2022-09-03T00:35:17.370Z,0.00
2022-09-03T00:36:17.376Z,0.00
2022-09-03T00:37:17.377Z,0.00
2022-09-03T00:38:17.410Z,0.00
2022-09-03T00:39:18.429Z,0.00
2022-09-03T00:40:17.319Z,0.00
2022-09-03T00:41:17.324Z,0.00
2022-09-03T00:42:17.335Z,0.00
2022-09-03T00:43:17.341Z,0.00
2022-09-03T00:44:17.359Z,0.00
2022-09-03T00:45:17.354Z,0.00
2022-09-03T00:46:17.346Z,0.00
2022-09-03T00:47:18.306Z,0.00
2022-09-03T00:48:17.599Z,0.00
2022-09-03T00:49:17.301Z,0.00
2022-09-03T00:50:17.272Z,0.00
2022-09-03T00:51:17.220Z,0.00
2022-09-03T00:52:17.304Z,0.00
2022-09-03T00:53:17.783Z,0.00
2022-09-03T00:54:17.220Z,0.00
2022-09-03T00:55:17.242Z,0.00
2022-09-03T00:56:17.334Z,0.00
2022-09-03T00:57:17.228Z,0.00
2022-09-03T00:58:17.305Z,0.00
2022-09-03T00:59:17.192Z,0.00
2022-09-03T01:00:17.183Z,0.00
2022-09-03T01:01:17.278Z,0.00
2022-09-03T01:02:18.023Z,0.00
2022-09-03T01:03:17.194Z,0.00
2022-09-03T01:04:17.184Z,0.00
2022-09-03T01:05:17.206Z,0.00
2022-09-03T01:06:17.791Z,0.00
2022-09-03T01:07:17.237Z,0.00
2022-09-03T01:08:17.116Z,0.00
2022-09-03T01:09:18.116Z,0.00
2022-09-03T01:10:17.240Z,0.00
2022-09-03T01:11:17.138Z,0.00
2022-09-03T01:12:17.108Z,0.00
2022-09-03T01:13:17.150Z,0.00
2022-09-03T01:14:17.144Z,0.00
2022-09-03T01:15:17.107Z,0.00
2022-09-03T01:16:17.818Z,0.00
2022-09-03T01:17:17.123Z,0.00
2022-09-03T01:18:17.098Z,0.00
2022-09-03T01:19:17.082Z,0.00
2022-09-03T01:20:17.049Z,0.00
2022-09-03T01:21:17.053Z,0.00
2022-09-03T01:22:17.036Z,0.00
2022-09-03T01:23:17.010Z,0.00
2022-09-03T01:24:17.759Z,0.00
2022-09-03T01:25:17.034Z,0.00
2022-09-03T01:26:17.005Z,0.00
2022-09-03T01:27:17.028Z,0.00
2022-09-03T01:28:16.996Z,0.00
2022-09-03T01:29:17.040Z,0.00
2022-09-03T01:30:16.961Z,0.00
2022-09-03T01:31:16.972Z,0.00
2022-09-03T01:32:17.599Z,0.00
2022-09-03T01:33:17.234Z,0.00
2022-09-03T01:34:18.062Z,0.00
2022-09-03T01:35:16.957Z,0.00
2022-09-03T01:36:18.721Z,0.00
2022-09-03T01:37:17.579Z,0.00
2022-09-03T01:38:16.970Z,0.00
2022-09-03T01:39:17.853Z,0.00
2022-09-03T01:40:17.004Z,0.00
2022-09-03T01:41:17.765Z,0.00
2022-09-03T01:42:20.439Z,0.00
2022-09-03T01:43:17.633Z,0.00
2022-09-03T01:44:16.868Z,0.00
2022-09-03T02:02:32.709Z,0.00
2022-09-03T02:03:32.443Z,0.00
2022-09-03T02:04:32.456Z,0.00
2022-09-03T02:05:33.561Z,0.00
2022-09-03T02:06:34.583Z,0.00
2022-09-03T02:07:33.596Z,0.00
2022-09-03T02:08:35.456Z,0.00
2022-09-03T02:09:33.624Z,0.00
2022-09-03T02:10:33.540Z,0.00
2022-09-03T02:11:33.569Z,0.00
2022-09-03T02:12:33.612Z,0.00
2022-09-03T02:13:36.598Z,0.00
2022-09-03T02:14:33.696Z,0.00
2022-09-03T02:16:08.571Z,0.00
2022-09-03T02:16:33.492Z,0.00
2022-09-03T02:17:33.528Z,0.00
2022-09-03T02:18:33.628Z,0.00
2022-09-03T02:19:33.473Z,0.00
2022-09-03T02:20:33.576Z,0.00
2022-09-03T02:21:33.445Z,0.00
2022-09-03T02:22:33.525Z,0.00
2022-09-03T02:23:33.501Z,0.00
2022-09-03T02:24:33.477Z,0.00
2022-09-03T02:25:33.456Z,0.00
2022-09-03T02:26:34.482Z,0.00
2022-09-03T02:27:33.428Z,0.00
2022-09-03T02:28:33.478Z,0.00
2022-09-03T02:29:33.436Z,0.00
2022-09-03T02:30:33.459Z,0.00
2022-09-03T02:31:33.406Z,0.00
2022-09-03T02:32:34.439Z,0.00
2022-09-03T02:33:34.206Z,0.00
2022-09-03T02:34:33.420Z,0.00
2022-09-03T02:35:33.405Z,0.00
2022-09-03T02:36:35.575Z,0.00
2022-09-03T02:37:36.259Z,0.00
2022-09-03T02:38:36.689Z,0.00
2022-09-03T02:39:37.361Z,0.00
2022-09-03T02:40:35.403Z,0.00
2022-09-03T02:41:33.341Z,0.00
2022-09-03T02:42:33.378Z,0.00
2022-09-03T02:43:33.407Z,0.00
2022-09-03T02:44:33.354Z,0.00
2022-09-03T02:45:33.287Z,0.00
2022-09-03T02:46:33.407Z,0.00
2022-09-03T02:47:33.307Z,0.00
2022-09-03T02:48:34.104Z,0.00
2022-09-03T02:49:33.461Z,0.00
2022-09-03T02:50:33.362Z,0.00
2022-09-03T02:51:33.293Z,0.00
2022-09-03T02:52:33.320Z,0.00
2022-09-03T02:53:33.268Z,0.00
2022-09-03T02:54:34.171Z,0.00
2022-09-03T02:55:34.133Z,0.00
2022-09-03T02:56:33.236Z,0.00
2022-09-03T02:57:33.241Z,0.00
2022-09-03T02:58:33.205Z,0.00
2022-09-03T02:59:33.209Z,0.00
2022-09-03T03:00:33.144Z,0.00
2022-09-03T03:01:33.257Z,0.00
2022-09-03T03:02:33.223Z,0.00
2022-09-03T03:03:33.178Z,0.00
2022-09-03T03:04:33.128Z,0.00
2022-09-03T03:05:33.153Z,0.00
2022-09-03T03:06:33.124Z,0.00
2022-09-03T03:07:33.115Z,0.00
2022-09-03T03:08:33.134Z,0.00
2022-09-03T03:09:34.115Z,0.00
2022-09-03T03:10:33.115Z,0.00
2022-09-03T03:11:33.074Z,0.00
2022-09-03T03:12:33.104Z,0.00
2022-09-03T03:13:33.056Z,0.00
2022-09-03T03:14:33.115Z,0.00
2022-09-03T03:15:33.063Z,0.00
2022-09-03T03:16:33.065Z,0.00
2022-09-03T03:17:33.057Z,0.00
2022-09-03T03:18:33.084Z,0.00
2022-09-03T03:19:33.121Z,0.00
2022-09-03T03:20:33.157Z,0.00
2022-09-03T03:21:32.998Z,0.00
2022-09-03T03:22:33.009Z,0.00
2022-09-03T03:23:33.022Z,0.00
2022-09-03T03:24:32.959Z,0.00
2022-09-03T03:25:33.064Z,0.00
2022-09-03T03:26:32.932Z,0.00
2022-09-03T03:27:32.973Z,0.00
2022-09-03T03:28:32.954Z,0.00
2022-09-03T03:29:32.956Z,0.00
2022-09-03T03:30:33.009Z,0.00
2022-09-03T03:31:32.949Z,0.00
2022-09-03T03:32:32.912Z,0.00
2022-09-03T03:33:32.879Z,0.00
2022-09-03T03:34:32.970Z,0.00
2022-09-03T03:35:32.919Z,0.00
2022-09-03T03:36:32.922Z,0.00
2022-09-03T03:37:32.867Z,0.00
2022-09-03T03:38:32.870Z,0.00
2022-09-03T03:39:32.908Z,0.00
2022-09-03T03:40:32.858Z,0.00
2022-09-03T03:41:32.863Z,0.00
2022-09-03T03:42:32.863Z,0.00
2022-09-03T03:43:32.887Z,0.00
2022-09-03T03:44:32.843Z,0.00
2022-09-03T03:45:32.856Z,0.00
2022-09-03T03:46:32.827Z,0.00
2022-09-03T04:02:26.403Z,4.00
2022-09-03T04:03:26.328Z,4.00
2022-09-03T04:04:26.292Z,8.00
2022-09-03T04:05:26.267Z,4.00
2022-09-03T04:06:27.438Z,4.00
2022-09-03T04:07:27.445Z,8.00
2022-09-03T04:08:27.388Z,8.00
2022-09-03T04:09:27.409Z,8.00
2022-09-03T04:10:27.403Z,8.00
2022-09-03T04:11:27.417Z,12.00
2022-09-03T04:12:27.392Z,16.00
2022-09-03T04:13:27.372Z,16.00
2022-09-03T04:14:27.387Z,24.00
2022-09-03T04:15:27.406Z,24.00
2022-09-03T04:16:27.473Z,32.00
2022-09-03T04:17:27.359Z,36.00
2022-09-03T04:18:27.368Z,44.00
2022-09-03T04:19:27.378Z,48.00
2022-09-03T04:20:27.308Z,56.00
2022-09-03T04:21:28.374Z,68.00
2022-09-03T04:22:27.317Z,80.00
2022-09-03T04:23:27.361Z,88.00
2022-09-03T04:24:27.404Z,100.00
2022-09-03T04:25:28.059Z,116.00
2022-09-03T04:26:27.317Z,136.00
2022-09-03T04:27:27.286Z,148.00
2022-09-03T04:28:27.460Z,172.00
2022-09-03T04:29:27.290Z,192.00
2022-09-03T04:30:27.292Z,216.00
2022-09-03T04:31:28.073Z,244.00
2022-09-03T04:32:27.319Z,268.00
2022-09-03T04:33:27.226Z,296.00
2022-09-03T04:34:27.254Z,328.00
2022-09-03T04:35:27.204Z,360.00
2022-09-03T04:36:27.189Z,396.00
2022-09-03T04:37:27.176Z,432.00
2022-09-03T04:38:28.168Z,464.00
2022-09-03T04:39:27.263Z,504.00
2022-09-03T04:40:27.207Z,552.00
2022-09-03T04:41:27.132Z,600.00
2022-09-03T04:42:27.169Z,656.00
2022-09-03T04:43:27.138Z,712.00
2022-09-03T04:44:27.162Z,776.00
2022-09-03T04:45:27.166Z,836.00
2022-09-03T04:46:27.279Z,896.00
2022-09-03T04:47:27.100Z,964.00
2022-09-03T04:48:28.075Z,1036.00
2022-09-03T04:49:27.157Z,1108.00
2022-09-03T04:50:27.158Z,1188.00
2022-09-03T04:51:27.157Z,1268.00
2022-09-03T04:52:27.157Z,1352.00
2022-09-03T04:53:27.130Z,1440.00
2022-09-03T04:54:28.198Z,1528.00
2022-09-03T04:55:27.029Z,1628.00
2022-09-03T04:56:27.128Z,1728.00
2022-09-03T04:57:27.056Z,1828.00
2022-09-03T04:58:27.085Z,1936.00
2022-09-03T04:59:27.030Z,2044.00
2022-09-03T05:00:27.056Z,2140.00
2022-09-03T05:01:27.038Z,2236.00
2022-09-03T05:02:27.042Z,2328.00
2022-09-03T05:03:27.079Z,2420.00
2022-09-03T05:04:27.031Z,2516.00
2022-09-03T05:05:27.982Z,2612.00
2022-09-03T05:06:28.984Z,2736.00
2022-09-03T05:07:29.359Z,2864.00
2022-09-03T05:08:29.450Z,2988.00
2022-09-03T05:09:27.019Z,3096.00
2022-09-03T05:10:26.969Z,3204.00
2022-09-03T05:11:26.913Z,3312.00
2022-09-03T05:12:27.003Z,3412.00
2022-09-03T05:13:26.913Z,3524.00
2022-09-03T05:14:26.927Z,3640.00
2022-09-03T05:15:26.919Z,3772.00
2022-09-03T05:16:27.046Z,3924.00
2022-09-03T05:17:26.913Z,5788.00
2022-09-03T05:18:26.853Z,13504.00
2022-09-03T05:19:26.940Z,21760.00
2022-09-03T05:20:26.868Z,25408.00
2022-09-03T05:21:26.887Z,25632.00
2022-09-03T05:22:26.885Z,19392.00
2022-09-03T05:23:26.859Z,9308.00
2022-09-03T05:24:28.022Z,7516.00
2022-09-03T05:25:26.826Z,6864.00
2022-09-03T05:26:26.910Z,6424.00
2022-09-03T05:27:33.728Z,5732.00
2022-09-03T05:28:26.876Z,9596.00
2022-09-03T05:29:26.820Z,20288.00
2022-09-03T05:30:26.876Z,8204.00
2022-09-03T05:31:26.904Z,7624.00
2022-09-03T05:32:26.772Z,5808.00
2022-09-03T05:33:26.750Z,7376.00
2022-09-03T05:34:26.862Z,6324.00
2022-09-03T05:35:30.109Z,6748.00
2022-09-03T05:36:26.740Z,13268.00
2022-09-03T05:37:26.734Z,26816.00
2022-09-03T05:38:26.704Z,40960.00
2022-09-03T05:39:26.811Z,46624.00
2022-09-03T05:40:26.745Z,48000.00
2022-09-03T05:41:26.710Z,47776.00
2022-09-03T05:42:26.721Z,25472.00
2022-09-03T05:43:26.751Z,46336.00
2022-09-03T05:44:26.725Z,14212.00
2022-09-03T05:45:26.785Z,8384.00
2022-09-03T05:46:26.727Z,9932.00
2022-09-03T05:47:26.703Z,8020.00
2022-09-03T05:48:26.663Z,7776.00
2022-09-03T05:49:26.650Z,8660.00
2022-09-03T05:50:26.647Z,8684.00
2022-09-03T05:51:26.653Z,8748.00
2022-09-03T05:52:26.603Z,9940.00
2022-09-03T05:53:26.703Z,8952.00
2022-09-03T05:54:26.627Z,22976.00
2022-09-03T05:55:26.600Z,52480.00
2022-09-03T05:56:26.680Z,57440.00
2022-09-03T05:57:26.669Z,58112.00
2022-09-03T05:58:26.636Z,57408.00
2022-09-03T05:59:26.607Z,59616.00
2022-09-03T06:00:26.539Z,60672.00
2022-09-03T06:01:26.587Z,60448.00
2022-09-03T06:02:26.714Z,60320.00
2022-09-03T06:03:26.706Z,62112.00
2022-09-03T06:04:26.528Z,63456.00
2022-09-03T06:05:26.534Z,63840.00
2022-09-03T06:06:26.543Z,63648.00
2022-09-03T06:07:26.581Z,65408.00
2022-09-03T06:08:26.559Z,64640.00
2022-09-03T06:09:26.517Z,63712.00
2022-09-03T06:10:34.448Z,64096.00
2022-09-03T06:11:28.470Z,65184.00
2022-09-03T06:12:26.548Z,49728.00
2022-09-03T06:13:26.505Z,60832.00
2022-09-03T06:14:26.541Z,66048.00
2022-09-03T06:15:26.460Z,67072.00
2022-09-03T06:16:31.553Z,69440.00
2022-09-03T06:17:28.485Z,68256.00
2022-09-03T06:18:26.434Z,68064.00
2022-09-03T06:19:26.434Z,68736.00
2022-09-03T06:20:26.498Z,69184.00
2022-09-03T06:21:26.451Z,69024.00
2022-09-03T06:22:26.534Z,69984.00
2022-09-03T06:23:26.480Z,70816.00
2022-09-03T06:24:28.506Z,70464.00
2022-09-03T06:25:27.121Z,71584.00
2022-09-03T06:26:26.400Z,70720.00
2022-09-03T06:27:26.948Z,58336.00
2022-09-03T06:28:26.736Z,40000.00
2022-09-03T06:29:27.371Z,60544.00
2022-09-03T06:30:28.401Z,29888.00
2022-09-03T06:31:26.356Z,76416.00
2022-09-03T06:32:26.324Z,75904.00
2022-09-03T06:33:26.470Z,76160.00
2022-09-03T06:34:26.344Z,77408.00
2022-09-03T06:35:27.110Z,42496.00
2022-09-03T06:36:26.370Z,38752.00
2022-09-03T06:37:26.292Z,63328.00
2022-09-03T06:38:27.199Z,44960.00
2022-09-03T06:39:26.428Z,76032.00
2022-09-03T06:40:26.311Z,75136.00
2022-09-03T06:41:26.285Z,76832.00
2022-09-03T06:42:26.293Z,60448.00
2022-09-03T06:43:27.110Z,68160.00
2022-09-03T06:44:26.240Z,77056.00
2022-09-03T06:45:26.289Z,46816.00
2022-09-03T06:46:26.231Z,47744.00
2022-09-03T06:47:26.277Z,27744.00
2022-09-03T06:48:26.210Z,26336.00
2022-09-03T06:49:26.228Z,53280.00
2022-09-03T06:50:26.273Z,27520.00
2022-09-03T06:51:26.214Z,20384.00
2022-09-03T06:52:26.194Z,21376.00
2022-09-03T06:53:26.208Z,41568.00
2022-09-03T06:54:27.184Z,23392.00
2022-09-03T06:55:26.157Z,26432.00
2022-09-03T06:56:26.231Z,23872.00
2022-09-03T06:57:26.881Z,32704.00
2022-09-03T06:58:26.197Z,33984.00
2022-09-03T06:59:26.113Z,57504.00
2022-09-03T07:00:26.268Z,44096.00
2022-09-03T07:01:26.183Z,76512.00
2022-09-03T07:02:26.198Z,80544.00
2022-09-03T07:03:26.063Z,80032.00
2022-09-03T07:04:26.214Z,79328.00
2022-09-03T07:05:26.033Z,79168.00
2022-09-03T07:06:26.096Z,77536.00
2022-09-03T07:07:26.115Z,75584.00
2022-09-03T07:08:26.008Z,76480.00
2022-09-03T07:09:26.077Z,77792.00
2022-09-03T07:10:26.068Z,77536.00
2022-09-03T07:11:26.025Z,76032.00
2022-09-03T07:12:26.057Z,74048.00
2022-09-03T07:13:26.059Z,77120.00
2022-09-03T07:14:25.963Z,76512.00
2022-09-03T07:15:26.075Z,76736.00
2022-09-03T07:16:26.048Z,76224.00
2022-09-03T07:17:26.046Z,76608.00
2022-09-03T07:18:26.054Z,74624.00
2022-09-03T07:19:25.986Z,75264.00
2022-09-03T07:20:25.957Z,77440.00
2022-09-03T07:21:25.947Z,75808.00
2022-09-03T07:22:31.350Z,75456.00
2022-09-03T07:23:27.147Z,77280.00
2022-09-03T07:24:25.958Z,76160.00
2022-09-03T07:25:25.996Z,75520.00
2022-09-03T07:26:25.893Z,74496.00
2022-09-03T07:27:25.907Z,73152.00
2022-09-03T07:28:26.177Z,72544.00
2022-09-03T07:29:25.973Z,72704.00
2022-09-03T07:30:25.955Z,73984.00
2022-09-03T07:31:26.251Z,73280.00
2022-09-03T07:32:25.875Z,72000.00
2022-09-03T07:33:25.841Z,69632.00
2022-09-03T07:34:26.399Z,71200.00
2022-09-03T07:35:25.827Z,75808.00
2022-09-03T07:36:25.806Z,77568.00
2022-09-03T07:37:25.894Z,78656.00
2022-09-03T07:38:25.934Z,80704.00
2022-09-03T07:39:25.903Z,83136.00
2022-09-03T07:40:26.404Z,81600.00
2022-09-03T07:41:27.028Z,82080.00
2022-09-03T07:42:25.802Z,79808.00
2022-09-03T07:43:27.571Z,81472.00
2022-09-03T07:44:25.866Z,80800.00
2022-09-03T07:45:26.531Z,68000.00
2022-09-03T07:46:25.810Z,50880.00
2022-09-03T07:47:27.080Z,36096.00
2022-09-03T07:48:25.851Z,26688.00
2022-09-03T07:49:25.703Z,26976.00
2022-09-03T07:50:25.770Z,86752.00
2022-09-03T07:51:25.701Z,51168.00
2022-09-03T07:52:25.702Z,64512.00
2022-09-03T07:53:25.701Z,46048.00
2022-09-03T07:54:25.682Z,51456.00
2022-09-03T07:55:25.659Z,58944.00
2022-09-03T07:56:25.659Z,40544.00
2022-09-03T07:57:25.649Z,40224.00
2022-09-03T07:58:25.733Z,63840.00
2022-09-03T07:59:25.628Z,68672.00
2022-09-03T08:00:25.725Z,73568.00
2022-09-03T08:01:25.697Z,75808.00
2022-09-03T08:02:25.672Z,68736.00
2022-09-03T08:03:25.657Z,71808.00
2022-09-03T08:04:25.669Z,66016.00
2022-09-03T08:05:57.940Z,35776.00
2022-09-03T08:06:25.706Z,29216.00
2022-09-03T08:09:17.728Z,25440.00
2022-09-03T08:10:17.722Z,24960.00
2022-09-03T08:11:19.234Z,24192.00
2022-09-03T08:12:18.981Z,22752.00
2022-09-03T08:13:19.715Z,23968.00
2022-09-03T08:14:18.980Z,32128.00
2022-09-03T08:15:53.777Z,29088.00
2022-09-03T08:16:18.768Z,27488.00
2022-09-03T08:17:18.733Z,25216.00
2022-09-03T08:18:18.759Z,25088.00
2022-09-03T08:19:18.818Z,23808.00
2022-09-03T08:20:25.696Z,21792.00
2022-09-03T08:21:19.978Z,19840.00
2022-09-03T08:22:18.905Z,19008.00
2022-09-03T08:23:18.811Z,18496.00
2022-09-03T08:24:18.850Z,18208.00
2022-09-03T08:25:19.617Z,16832.00
2022-09-03T08:26:18.888Z,16640.00
2022-09-03T08:27:18.711Z,16832.00
2022-09-03T08:28:19.277Z,17440.00
2022-09-03T08:29:19.209Z,18880.00
2022-09-03T08:30:19.549Z,21216.00
2022-09-03T08:31:19.527Z,21920.00
2022-09-03T08:32:18.742Z,23104.00
2022-09-03T08:33:18.661Z,22240.00
2022-09-03T08:34:18.664Z,19584.00
2022-09-03T08:35:18.695Z,18016.00
2022-09-03T08:36:19.907Z,17312.00
2022-09-03T08:37:18.735Z,16736.00
2022-09-03T08:38:19.293Z,16288.00
2022-09-03T08:39:18.725Z,15768.00
2022-09-03T08:40:18.755Z,15260.00
2022-09-03T08:41:18.699Z,14444.00
2022-09-03T08:42:20.714Z,13552.00
2022-09-03T08:43:18.785Z,12676.00
2022-09-03T08:44:20.080Z,11808.00
2022-09-03T08:45:20.327Z,11032.00
2022-09-03T08:46:18.682Z,10424.00
2022-09-03T08:47:20.208Z,9944.00
2022-09-03T08:48:21.677Z,9608.00
2022-09-03T08:49:20.525Z,9380.00
2022-09-03T08:50:20.321Z,9284.00
2022-09-03T08:51:19.451Z,9268.00
2022-09-03T08:52:19.177Z,9232.00
2022-09-03T08:53:18.678Z,9240.00
2022-09-03T08:54:18.612Z,9304.00
2022-09-03T08:55:18.584Z,9496.00
2022-09-03T08:56:18.589Z,9772.00
2022-09-03T08:57:19.424Z,10040.00
2022-09-03T08:58:19.072Z,10240.00
2022-09-03T08:59:18.479Z,10476.00
2022-09-03T09:00:19.578Z,10720.00
2022-09-03T09:01:18.600Z,11028.00
2022-09-03T09:02:18.646Z,11436.00
2022-09-03T09:03:18.501Z,11952.00
2022-09-03T09:04:18.449Z,12468.00
2022-09-03T09:05:19.489Z,13040.00
2022-09-03T09:06:18.464Z,13548.00
2022-09-03T09:07:18.486Z,14156.00
2022-09-03T09:08:20.391Z,14840.00
2022-09-03T09:09:18.591Z,15492.00
2022-09-03T09:10:19.240Z,16576.00
2022-09-03T09:11:18.476Z,17600.00
2022-09-03T09:12:18.987Z,19712.00
2022-09-03T09:13:18.948Z,20672.00
2022-09-03T09:14:19.746Z,22048.00
2022-09-03T09:15:19.055Z,24768.00
2022-09-03T09:16:19.054Z,31520.00
2022-09-03T09:17:18.401Z,29408.00
2022-09-03T09:18:18.348Z,31328.00
2022-09-03T09:19:18.995Z,29280.00
2022-09-03T09:20:19.247Z,28992.00
2022-09-03T09:21:21.957Z,28832.00
2022-09-03T09:22:20.240Z,31104.00
2022-09-03T09:23:18.996Z,30464.00
2022-09-03T09:24:18.719Z,29792.00
2022-09-03T09:25:19.300Z,30048.00
2022-09-03T09:26:18.319Z,23424.00
2022-09-03T09:27:18.263Z,19840.00
2022-09-03T09:28:18.208Z,18496.00
2022-09-03T09:29:18.295Z,19648.00
2022-09-03T09:30:18.951Z,21280.00
2022-09-03T09:31:18.327Z,21696.00
2022-09-03T09:32:18.236Z,20192.00
2022-09-03T09:33:18.981Z,20544.00
2022-09-03T09:34:18.233Z,20000.00
2022-09-03T09:35:18.295Z,20576.00
2022-09-03T09:36:19.003Z,23360.00
2022-09-03T09:37:18.196Z,20608.00
2022-09-03T09:38:18.136Z,19936.00
2022-09-03T09:39:19.777Z,19936.00
2022-09-03T09:40:18.223Z,19520.00
2022-09-03T09:41:18.221Z,19168.00
2022-09-03T09:42:18.174Z,18784.00
2022-09-03T09:43:18.153Z,18752.00
2022-09-03T09:44:18.200Z,18624.00
2022-09-03T09:45:18.157Z,18816.00
2022-09-03T09:46:19.077Z,19744.00
2022-09-03T09:47:18.185Z,22496.00
2022-09-03T09:48:18.730Z,21088.00
2022-09-03T09:49:18.248Z,21888.00
2022-09-03T09:50:24.954Z,19072.00
2022-09-03T09:51:19.977Z,17536.00
2022-09-03T09:52:18.070Z,17472.00
2022-09-03T09:53:18.088Z,18272.00
2022-09-03T09:54:19.216Z,20736.00
2022-09-03T09:55:18.059Z,18592.00
2022-09-03T09:56:19.035Z,19872.00
2022-09-03T09:57:18.102Z,20768.00
2022-09-03T09:58:18.152Z,19040.00
2022-09-03T09:59:18.100Z,19072.00
2022-09-03T10:00:18.073Z,19456.00
2022-09-03T10:01:18.090Z,18336.00
2022-09-03T10:02:22.310Z,19264.00
2022-09-03T10:03:18.136Z,19968.00
2022-09-03T10:04:18.050Z,20032.00
2022-09-03T10:05:18.080Z,18048.00
2022-09-03T10:06:18.060Z,17344.00
2022-09-03T10:07:18.743Z,16672.00
2022-09-03T10:08:19.852Z,15524.00
2022-09-03T10:09:18.510Z,15244.00
2022-09-03T10:10:18.339Z,14988.00
2022-09-03T10:11:17.983Z,14744.00
2022-09-03T10:12:17.978Z,14500.00
2022-09-03T10:13:18.580Z,14520.00
2022-09-03T10:14:17.992Z,14060.00
2022-09-03T10:15:18.757Z,16196.00
2022-09-03T10:16:17.993Z,15612.00
2022-09-03T10:17:18.184Z,17792.00
2022-09-03T10:18:17.905Z,17504.00
2022-09-03T10:19:18.485Z,14060.00
2022-09-03T10:20:19.306Z,12744.00
2022-09-03T10:21:17.885Z,12520.00
2022-09-03T10:22:19.024Z,12656.00
2022-09-03T10:23:17.786Z,12972.00
2022-09-03T10:24:17.978Z,13212.00
2022-09-03T10:25:17.944Z,13356.00
2022-09-03T10:26:18.910Z,13132.00
2022-09-03T10:27:17.851Z,13044.00
2022-09-03T10:28:17.878Z,13068.00
2022-09-03T10:29:17.798Z,12444.00
2022-09-03T10:30:17.811Z,11976.00
2022-09-03T10:31:17.959Z,11768.00
2022-09-03T10:32:17.821Z,11152.00
2022-09-03T10:33:17.811Z,11080.00
2022-09-03T10:34:18.529Z,11040.00
2022-09-03T10:35:18.507Z,11052.00
2022-09-03T10:36:17.845Z,11424.00
2022-09-03T10:37:17.724Z,11716.00
2022-09-03T10:38:17.788Z,11916.00
2022-09-03T10:39:17.825Z,11792.00
2022-09-03T10:40:17.830Z,12124.00
2022-09-03T10:41:18.478Z,12432.00
2022-09-03T10:42:18.501Z,13056.00
2022-09-03T10:43:17.690Z,12704.00
2022-09-03T10:44:18.304Z,13524.00
2022-09-03T10:45:17.787Z,12772.00
2022-09-03T10:46:23.304Z,11492.00
2022-09-03T10:47:20.472Z,11008.00
2022-09-03T10:48:18.508Z,11064.00
2022-09-03T10:49:18.152Z,11244.00
2022-09-03T10:50:17.715Z,10984.00
2022-09-03T10:51:17.698Z,11440.00
2022-09-03T10:52:17.699Z,12072.00
2022-09-03T10:53:17.615Z,12804.00
2022-09-03T10:54:17.627Z,15552.00
2022-09-03T10:55:18.761Z,12620.00
2022-09-03T10:56:17.601Z,12168.00
2022-09-03T10:57:17.556Z,13324.00
2022-09-03T10:58:17.572Z,15712.00
2022-09-03T10:59:17.572Z,14792.00
2022-09-03T11:00:17.600Z,14304.00
2022-09-03T11:01:18.544Z,14260.00
2022-09-03T11:02:18.546Z,14148.00
2022-09-03T11:03:20.976Z,14096.00
2022-09-03T11:04:17.611Z,13320.00
2022-09-03T11:05:17.576Z,12548.00
2022-09-03T11:06:17.605Z,10676.00
2022-09-03T11:07:18.492Z,10212.00
2022-09-03T11:08:17.542Z,9696.00
2022-09-03T11:09:18.264Z,9404.00
2022-09-03T11:10:17.519Z,9188.00
2022-09-03T11:11:17.554Z,8820.00
2022-09-03T11:12:18.049Z,8436.00
2022-09-03T11:13:17.497Z,8216.00
2022-09-03T11:14:17.469Z,8232.00
2022-09-03T11:15:17.413Z,8156.00
2022-09-03T11:16:17.527Z,8172.00
2022-09-03T11:17:18.013Z,8244.00
2022-09-03T11:18:18.048Z,8380.00
2022-09-03T11:19:17.457Z,8480.00
2022-09-03T11:20:17.492Z,8516.00
2022-09-03T11:21:17.426Z,8464.00
2022-09-03T11:22:17.435Z,8232.00
2022-09-03T11:23:17.417Z,7924.00
2022-09-03T11:24:17.432Z,7648.00
2022-09-03T11:25:17.378Z,7388.00
2022-09-03T11:26:17.377Z,7172.00
2022-09-03T11:27:18.768Z,6944.00
2022-09-03T11:28:18.012Z,6716.00
2022-09-03T11:29:18.281Z,6564.00
2022-09-03T11:30:17.389Z,6464.00
2022-09-03T11:31:17.429Z,6208.00
2022-09-03T11:32:17.301Z,6048.00
2022-09-03T11:33:17.334Z,5904.00
2022-09-03T11:34:23.668Z,5756.00
2022-09-03T11:35:18.332Z,5616.00
2022-09-03T11:36:17.301Z,5468.00
2022-09-03T11:37:17.264Z,5328.00
2022-09-03T11:38:17.300Z,5200.00
2022-09-03T11:39:17.317Z,5072.00
2022-09-03T11:40:17.247Z,4920.00
2022-09-03T11:41:17.299Z,4832.00
2022-09-03T11:42:17.327Z,4724.00
2022-09-03T11:43:17.228Z,4664.00
2022-09-03T11:44:18.022Z,4644.00
2022-09-03T11:45:17.210Z,4640.00
2022-09-03T11:46:17.280Z,4648.00
2022-09-03T11:47:17.199Z,4680.00
2022-09-03T11:48:17.123Z,4728.00
2022-09-03T11:49:17.179Z,4792.00
2022-09-03T11:50:17.234Z,4872.00
2022-09-03T11:51:17.222Z,4936.00
2022-09-03T11:52:17.183Z,5012.00
2022-09-03T11:53:17.193Z,5088.00
2022-09-03T11:54:17.135Z,5188.00
2022-09-03T11:55:17.156Z,5316.00
2022-09-03T11:56:17.207Z,5460.00
2022-09-03T11:57:17.143Z,5592.00
2022-09-03T11:58:17.205Z,5668.00
2022-09-03T11:59:17.135Z,5792.00
2022-09-03T12:00:17.158Z,5864.00
2022-09-03T12:01:17.175Z,6000.00
2022-09-03T12:02:17.215Z,6208.00
2022-09-03T12:03:17.120Z,6536.00
2022-09-03T12:04:17.092Z,6876.00
2022-09-03T12:05:18.009Z,7292.00
2022-09-03T12:06:17.055Z,7680.00
2022-09-03T12:07:17.567Z,8004.00
2022-09-03T12:08:17.872Z,8188.00
2022-09-03T12:09:17.009Z,8208.00
2022-09-03T12:10:16.981Z,8080.00
2022-09-03T12:11:17.779Z,7836.00
2022-09-03T12:12:17.031Z,7632.00
2022-09-03T12:13:18.029Z,7432.00
2022-09-03T12:14:16.942Z,7384.00
2022-09-03T12:15:18.079Z,7336.00
2022-09-03T12:16:17.057Z,7312.00
2022-09-03T12:17:16.951Z,7324.00
2022-09-03T12:18:16.968Z,7352.00
2022-09-03T12:19:17.496Z,7368.00
2022-09-03T12:20:17.783Z,7384.00
2022-09-03T12:21:17.516Z,7400.00
2022-09-03T12:22:17.809Z,7428.00
2022-09-03T12:23:17.138Z,7460.00
2022-09-03T12:24:51.937Z,7484.00
2022-09-03T12:25:17.973Z,7420.00
2022-09-03T12:26:16.857Z,7384.00
2022-09-03T12:27:18.924Z,7252.00
2022-09-03T12:28:49.994Z,7136.00
2022-09-03T12:29:51.963Z,7012.00
2022-09-03T12:30:16.790Z,6856.00
2022-09-03T12:33:15.682Z,6172.00
2022-09-03T12:34:16.760Z,5872.00
2022-09-03T12:35:58.264Z,5540.00
2022-09-03T12:36:18.745Z,5224.00
2022-09-03T12:37:16.991Z,4932.00
2022-09-03T12:38:18.677Z,4652.00
2022-09-03T12:39:18.006Z,4440.00
2022-09-03T12:40:20.227Z,4232.00
2022-09-03T12:41:23.617Z,4048.00
2022-09-03T12:42:18.797Z,3908.00
2022-09-03T12:44:21.227Z,3744.00
2022-09-03T12:45:16.752Z,3640.00
2022-09-03T12:46:17.883Z,3588.00
2022-09-03T12:47:36.529Z,3548.00
2022-09-03T12:48:18.680Z,3524.00
2022-09-03T12:49:31.885Z,3536.00
2022-09-03T12:50:20.939Z,3516.00
2022-09-03T12:52:20.838Z,3532.00
2022-09-03T12:53:17.297Z,3548.00
2022-09-03T12:54:16.706Z,3584.00
2022-09-03T12:55:16.713Z,3608.00